Time;durP1;ratioP1;P1;durP2;ratioP2;P2;SDS_P1;SDS_P2;PMS_P1;PMS_P2;Temp;Humidity;BMP_temperature;BMP_pressure;BME280_temperature;BME280_humidity;BME280_pressure;Samples;Min_cycle;Max_cycle;Signal;HPM_P1;HPM_P2
2022/03/16 00:02:00;;;;;;;52.25;31.70;;;9.30;77.00;;;;;;4973434;28;20062;-71
2022/03/16 00:04:26;;;;;;;54.78;31.77;;;9.30;77.20;;;;;;4973854;28;20089;-73
2022/03/16 00:06:52;;;;;;;60.45;35.38;;;9.30;77.10;;;;;;4973273;28;20332;-70
2022/03/16 00:09:18;;;;;;;99.07;55.58;;;9.30;77.40;;;;;;4973629;28;20536;-76
2022/03/16 00:11:44;;;;;;;150.63;82.63;;;9.30;76.60;;;;;;4988108;28;20031;-72
2022/03/16 00:14:10;;;;;;;187.15;95.60;;;9.40;77.20;;;;;;4989652;28;20464;-72
2022/03/16 00:16:36;;;;;;;54.10;32.58;;;9.40;76.40;;;;;;4992902;28;20054;-75
2022/03/16 00:19:02;;;;;;;55.70;31.25;;;9.40;75.90;;;;;;4993091;28;20192;-74
2022/03/16 00:21:28;;;;;;;59.97;32.08;;;9.50;75.70;;;;;;4974557;28;20030;-74
2022/03/16 00:23:53;;;;;;;48.00;30.80;;;9.50;75.50;;;;;;4973368;28;20047;-72
2022/03/16 00:26:19;;;;;;;53.05;30.40;;;9.50;75.30;;;;;;4973611;28;20500;-72
2022/03/16 00:28:45;;;;;;;47.35;26.80;;;9.60;75.10;;;;;;4973346;28;20031;-72
2022/03/16 00:31:11;;;;;;;49.35;26.52;;;9.60;75.00;;;;;;4973316;28;20043;-75
2022/03/16 00:33:38;;;;;;;50.75;28.13;;;9.60;74.60;;;;;;4973261;28;20042;-74
2022/03/16 00:36:04;;;;;;;44.03;27.67;;;9.60;74.50;;;;;;4971943;28;20093;-75
2022/03/16 00:38:30;;;;;;;49.63;29.85;;;9.60;74.30;;;;;;4973352;28;20079;-72
2022/03/16 00:40:57;;;;;;;44.60;29.75;;;9.70;74.50;;;;;;4972685;28;20478;-74
2022/03/16 00:43:23;;;;;;;57.60;32.42;;;9.70;74.30;;;;;;4971730;28;20054;-76
2022/03/16 00:45:49;;;;;;;49.50;30.42;;;9.70;74.40;;;;;;4973362;28;20026;-77
2022/03/16 00:48:15;;;;;;;54.85;33.80;;;9.70;74.50;;;;;;4973005;28;20081;-76
2022/03/16 00:50:44;;;;;;;65.60;37.88;;;9.70;74.40;;;;;;4972845;28;20023;-77
2022/03/16 00:53:10;;;;;;;60.20;37.25;;;9.70;74.70;;;;;;4971327;28;20469;-76
2022/03/16 00:55:36;;;;;;;97.68;54.30;;;9.80;75.90;;;;;;4976154;28;20090;-73
2022/03/16 00:58:02;;;;;;;85.78;49.08;;;9.80;75.50;;;;;;4975918;28;20026;-75
2022/03/16 01:00:28;;;;;;;68.00;41.40;;;9.80;75.30;;;;;;4972973;28;20035;-73
2022/03/16 01:02:56;;;;;;;81.93;48.97;;;9.80;76.20;;;;;;4972919;28;20397;-73
2022/03/16 01:05:22;;;;;;;77.85;44.80;;;9.70;75.70;;;;;;4979619;28;20031;-72
2022/03/16 01:07:53;;;;;;;77.35;41.13;;;9.70;75.50;;;;;;4972661;28;20033;-78
2022/03/16 01:10:19;;;;;;;64.80;39.28;;;9.70;77.00;;;;;;4977709;28;20034;-76
2022/03/16 01:12:45;;;;;;;67.30;43.08;;;9.70;76.80;;;;;;4972454;28;20037;-77
2022/03/16 01:15:12;;;;;;;88.53;53.78;;;9.70;76.40;;;;;;4955105;28;20085;-79
2022/03/16 01:17:38;;;;;;;83.82;46.83;;;9.70;76.70;;;;;;4964728;28;20125;-77
2022/03/16 01:20:05;;;;;;;85.00;47.83;;;9.80;76.80;;;;;;4972819;28;20524;-75
2022/03/16 01:22:30;;;;;;;71.35;43.50;;;9.80;76.90;;;;;;4972324;28;20039;-76
2022/03/16 01:24:57;;;;;;;75.40;42.63;;;9.80;76.80;;;;;;4972501;28;20031;-75
2022/03/16 01:27:22;;;;;;;79.80;44.55;;;9.90;77.20;;;;;;4971190;28;20516;-74
2022/03/16 01:29:48;;;;;;;77.25;47.47;;;9.90;77.60;;;;;;4972550;28;20150;-74
2022/03/16 01:32:15;;;;;;;69.13;44.30;;;9.90;77.80;;;;;;4971217;28;20030;-74
2022/03/16 01:34:41;;;;;;;75.03;46.05;;;9.90;77.70;;;;;;4955536;28;20038;-74
2022/03/16 01:37:06;;;;;;;66.47;41.10;;;9.90;77.50;;;;;;4954953;28;20117;-75
2022/03/16 01:39:32;;;;;;;74.50;40.90;;;10.00;78.50;;;;;;4954872;28;20078;-76
2022/03/16 01:41:58;;;;;;;68.47;40.88;;;9.90;77.50;;;;;;4972565;28;20063;-73
2022/03/16 01:44:48;;;;;;;64.18;38.42;;;9.90;77.30;;;;;;4972201;28;20042;-74
2022/03/16 01:47:17;;;;;;;62.70;37.75;;;9.90;77.90;;;;;;4955120;28;20031;-74
2022/03/16 01:49:44;;;;;;;62.47;38.55;;;9.90;77.60;;;;;;4954511;28;20125;-74
2022/03/16 01:52:12;;;;;;;59.05;39.25;;;9.90;77.80;;;;;;4973739;28;20034;-74
2022/03/16 01:54:39;;;;;;;65.93;38.33;;;10.00;77.80;;;;;;4959157;28;20481;-74
2022/03/16 01:57:09;;;;;;;69.05;40.13;;;10.00;79.40;;;;;;4974648;28;20546;-73
2022/03/16 01:59:36;;;;;;;63.47;38.60;;;10.00;79.90;;;;;;4975031;28;20038;-73
2022/03/16 02:02:04;;;;;;;67.72;41.38;;;9.90;80.00;;;;;;4976162;28;20484;-74
2022/03/16 02:04:30;;;;;;;65.53;42.85;;;9.90;80.20;;;;;;4974825;28;20027;-74
2022/03/16 02:06:57;;;;;;;72.82;42.33;;;9.90;80.00;;;;;;4975713;28;20153;-73
2022/03/16 02:09:23;;;;;;;66.55;42.42;;;9.90;80.30;;;;;;4975999;28;20027;-72
2022/03/16 02:11:49;;;;;;;59.10;37.40;;;9.80;80.00;;;;;;4986322;28;20031;-76
2022/03/16 02:14:17;;;;;;;63.47;39.90;;;9.80;79.90;;;;;;4975743;28;20461;-73
2022/03/16 02:16:44;;;;;;;135.38;71.60;;;9.80;80.80;;;;;;4980178;28;20058;-72
2022/03/16 02:19:10;;;;;;;96.63;53.78;;;9.70;81.20;;;;;;4975588;28;20034;-74
2022/03/16 02:21:38;;;;;;;59.80;37.22;;;9.70;81.90;;;;;;4975686;28;20547;-72
2022/03/16 02:24:05;;;;;;;71.68;34.22;;;9.70;82.00;;;;;;4975476;28;20053;-73
2022/03/16 02:26:31;;;;;;;58.95;34.60;;;9.60;82.80;;;;;;4975873;28;20053;-73
2022/03/16 02:28:58;;;;;;;58.80;40.97;;;9.50;83.30;;;;;;4975116;28;20027;-73
2022/03/16 02:31:24;;;;;;;56.97;35.92;;;9.50;84.60;;;;;;4958576;28;20035;-73
2022/03/16 02:33:50;;;;;;;102.90;71.00;;;9.40;84.90;;;;;;4975735;28;20038;-73
2022/03/16 02:36:17;;;;;;;62.67;41.55;;;9.30;86.30;;;;;;4975264;28;20860;-71
2022/03/16 02:38:43;;;;;;;45.88;29.73;;;9.30;88.20;;;;;;4975818;28;20030;-72
2022/03/16 02:41:09;;;;;;;44.40;27.75;;;9.20;88.90;;;;;;4975012;28;20131;-72
2022/03/16 02:43:35;;;;;;;46.72;28.58;;;9.20;88.90;;;;;;4975376;28;20498;-72
2022/03/16 02:46:01;;;;;;;44.25;27.75;;;9.30;89.30;;;;;;4975317;28;20091;-73
2022/03/16 02:48:27;;;;;;;80.05;45.95;;;9.20;90.30;;;;;;4974057;28;20030;-73
2022/03/16 02:50:53;;;;;;;56.75;32.50;;;9.10;91.40;;;;;;4957573;28;20023;-73
2022/03/16 02:53:20;;;;;;;45.38;26.95;;;9.00;92.40;;;;;;4974921;28;20045;-73
2022/03/16 02:55:47;;;;;;;45.05;27.10;;;9.00;92.90;;;;;;4974054;28;20026;-73
2022/03/16 02:58:14;;;;;;;47.35;29.35;;;9.10;93.20;;;;;;4974903;28;20515;-72
2022/03/16 03:00:40;;;;;;;48.65;28.80;;;9.10;93.50;;;;;;4975307;28;20109;-72
2022/03/16 03:03:06;;;;;;;44.03;26.40;;;9.10;93.40;;;;;;4974928;28;20042;-72
2022/03/16 03:05:32;;;;;;;42.92;24.70;;;9.20;93.20;;;;;;4975486;28;20469;-73
2022/03/16 03:07:59;;;;;;;80.82;45.90;;;9.20;91.90;;;;;;4973445;28;20034;-72
2022/03/16 03:10:26;;;;;;;90.75;51.72;;;9.20;92.30;;;;;;4974926;28;20025;-72
2022/03/16 03:12:52;;;;;;;56.50;34.70;;;9.20;92.50;;;;;;4974800;28;20039;-72
2022/03/16 03:15:18;;;;;;;54.70;33.08;;;9.20;92.10;;;;;;4973600;28;20033;-71
2022/03/16 03:17:45;;;;;;;37.55;22.77;;;9.20;92.00;;;;;;4974461;28;20393;-72
2022/03/16 03:20:12;;;;;;;32.35;20.65;;;9.20;91.00;;;;;;4974658;28;20023;-72
2022/03/16 03:22:39;;;;;;;35.22;22.08;;;9.20;90.80;;;;;;4974226;28;20046;-73
2022/03/16 03:25:08;;;;;;;49.33;32.42;;;9.20;90.80;;;;;;4974726;28;20059;-73
2022/03/16 03:27:34;;;;;;;40.15;25.23;;;9.10;91.20;;;;;;4974342;28;20045;-72
2022/03/16 03:30:00;;;;;;;33.53;20.40;;;9.20;91.50;;;;;;4974201;28;20047;-72
2022/03/16 03:32:26;;;;;;;35.63;23.08;;;9.10;91.70;;;;;;4975625;28;20393;-73
2022/03/16 03:34:53;;;;;;;36.83;23.60;;;9.10;92.10;;;;;;4983635;28;20030;-72
2022/03/16 03:37:19;;;;;;;34.25;18.42;;;9.10;92.20;;;;;;4981855;28;20568;-73
2022/03/16 03:39:46;;;;;;;33.28;23.10;;;9.10;91.90;;;;;;4993797;28;20550;-76
2022/03/16 03:42:12;;;;;;;43.15;26.80;;;9.10;91.70;;;;;;4993531;28;20039;-75
2022/03/16 03:44:38;;;;;;;54.35;28.52;;;9.10;91.90;;;;;;4977698;28;20050;-76
2022/03/16 03:47:08;;;;;;;43.25;27.52;;;9.10;92.20;;;;;;4974028;28;20023;-77
2022/03/16 03:49:36;;;;;;;52.67;29.70;;;9.10;92.30;;;;;;4974232;28;20078;-76
2022/03/16 03:52:03;;;;;;;47.17;25.70;;;9.00;92.60;;;;;;4973862;28;20106;-77
2022/03/16 03:54:29;;;;;;;47.15;26.65;;;9.10;92.80;;;;;;4974362;28;20050;-76
2022/03/16 03:56:55;;;;;;;48.83;25.98;;;9.10;93.00;;;;;;4972460;28;20026;-75
2022/03/16 03:59:23;;;;;;;57.75;29.15;;;9.10;93.20;;;;;;4974167;28;20445;-75
2022/03/16 04:01:49;;;;;;;44.85;26.58;;;9.10;93.70;;;;;;4973663;28;20485;-75
2022/03/16 04:04:15;;;;;;;52.35;30.88;;;9.10;93.80;;;;;;4973927;28;20030;-73
2022/03/16 04:06:41;;;;;;;52.35;30.67;;;9.10;93.90;;;;;;4955926;28;20023;-75
2022/03/16 04:09:08;;;;;;;57.80;34.85;;;9.10;94.00;;;;;;4956433;28;20361;-75
2022/03/16 04:11:37;;;;;;;48.03;28.63;;;9.00;94.60;;;;;;4980865;28;20105;-73
2022/03/16 04:14:04;;;;;;;48.80;30.25;;;9.10;94.20;;;;;;4974269;28;20027;-75
2022/03/16 04:16:30;;;;;;;51.33;29.85;;;9.10;94.00;;;;;;4962846;28;20019;-75
2022/03/16 04:18:56;;;;;;;79.20;45.20;;;9.10;95.80;;;;;;4954080;29;20023;-74
2022/03/16 04:21:22;;;;;;;60.20;36.80;;;9.00;95.90;;;;;;4954276;28;20020;-75
2022/03/16 04:23:51;;;;;;;57.90;33.42;;;9.00;96.20;;;;;;4936667;29;20039;-75
2022/03/16 04:26:18;;;;;;;61.47;33.47;;;9.00;95.40;;;;;;4954158;29;20102;-75
2022/03/16 04:28:46;;;;;;;58.47;34.63;;;9.10;95.90;;;;;;4936524;29;20109;-75
2022/03/16 04:31:13;;;;;;;65.30;37.30;;;9.10;95.70;;;;;;4953800;29;20062;-72
2022/03/16 04:33:39;;;;;;;73.82;39.35;;;9.10;95.10;;;;;;4954293;29;20507;-72
2022/03/16 04:36:06;;;;;;;69.13;42.80;;;9.20;94.60;;;;;;4953727;29;20027;-73
2022/03/16 04:38:32;;;;;;;64.75;38.28;;;9.10;94.20;;;;;;4941457;29;20058;-72
2022/03/16 04:41:00;;;;;;;64.40;37.78;;;9.10;94.20;;;;;;4959444;28;20055;-73
2022/03/16 04:43:26;;;;;;;74.25;36.35;;;9.00;94.80;;;;;;4952769;29;20047;-72
2022/03/16 04:45:52;;;;;;;50.22;32.47;;;9.00;95.00;;;;;;4953655;29;20027;-71
2022/03/16 04:48:18;;;;;;;63.92;32.85;;;9.00;93.30;;;;;;4953783;29;20066;-76
2022/03/16 04:50:44;;;;;;;56.05;32.00;;;9.00;93.60;;;;;;4953455;29;20036;-75
2022/03/16 04:53:10;;;;;;;56.30;32.47;;;8.80;93.20;;;;;;4953790;29;20031;-73
2022/03/16 04:55:37;;;;;;;63.10;34.08;;;8.80;93.50;;;;;;4954076;29;20026;-76
2022/03/16 04:58:08;;;;;;;59.30;32.72;;;8.70;93.50;;;;;;4936323;29;20031;-74
2022/03/16 05:00:36;;;;;;;66.95;36.55;;;8.70;93.50;;;;;;4942806;28;20094;-75
2022/03/16 05:03:03;;;;;;;59.92;34.45;;;8.70;93.90;;;;;;4972798;28;20035;-73
2022/03/16 05:05:30;;;;;;;67.78;32.22;;;8.70;93.70;;;;;;4972928;28;20476;-75
2022/03/16 05:07:56;;;;;;;56.60;31.63;;;8.70;95.40;;;;;;4972219;28;20086;-74
2022/03/16 05:10:23;;;;;;;60.75;29.83;;;8.70;94.90;;;;;;4972332;28;20034;-76
2022/03/16 05:12:49;;;;;;;55.22;32.10;;;8.70;94.30;;;;;;4972092;28;20038;-75
2022/03/16 05:15:17;;;;;;;55.88;30.60;;;8.70;94.20;;;;;;4972255;28;20027;-76
2022/03/16 05:17:44;;;;;;;61.17;35.53;;;8.70;94.10;;;;;;4972343;28;20421;-71
2022/03/16 05:20:11;;;;;;;64.35;34.67;;;8.80;93.80;;;;;;4971998;28;20135;-75
2022/03/16 05:22:44;;;;;;;68.15;34.85;;;8.80;93.40;;;;;;4970145;28;20126;-74
2022/03/16 05:25:12;;;;;;;80.75;49.20;;;8.80;94.20;;;;;;4963022;28;20480;-75
2022/03/16 05:27:38;;;;;;;72.82;40.97;;;8.80;94.80;;;;;;4968316;28;20061;-77
2022/03/16 05:30:06;;;;;;;88.03;55.33;;;8.70;95.60;;;;;;4971104;28;20378;-76
2022/03/16 05:32:33;;;;;;;78.18;46.15;;;8.60;95.60;;;;;;4971850;28;20041;-76
2022/03/16 05:34:59;;;;;;;68.28;47.50;;;8.70;95.50;;;;;;4971204;28;20436;-77
2022/03/16 05:37:25;;;;;;;52.92;32.53;;;8.70;95.60;;;;;;4972259;28;20106;-76
2022/03/16 05:39:52;;;;;;;66.13;33.50;;;8.60;93.70;;;;;;4955406;28;20027;-77
2022/03/16 05:42:19;;;;;;;58.80;35.40;;;8.60;94.10;;;;;;4980977;28;20126;-76
2022/03/16 05:44:45;;;;;;;61.38;36.92;;;8.70;94.80;;;;;;4972552;28;20027;-76
2022/03/16 05:47:14;;;;;;;60.85;38.75;;;8.60;95.50;;;;;;4971865;28;20023;-77
2022/03/16 05:49:40;;;;;;;81.57;44.20;;;8.70;95.10;;;;;;4954720;28;20054;-73
2022/03/16 05:52:06;;;;;;;82.47;43.05;;;8.70;94.30;;;;;;4975848;28;20027;-75
2022/03/16 05:54:33;;;;;;;59.70;40.05;;;8.80;94.30;;;;;;4955189;28;20045;-74
2022/03/16 05:56:59;;;;;;;59.05;38.28;;;8.80;93.70;;;;;;4984725;28;20023;-75
2022/03/16 05:59:26;;;;;;;65.43;44.97;;;8.90;93.30;;;;;;4962177;28;20045;-72
2022/03/16 06:01:52;;;;;;;76.20;43.67;;;9.00;92.90;;;;;;4971934;28;20129;-72
2022/03/16 06:04:18;;;;;;;66.15;41.78;;;9.00;93.00;;;;;;4972558;28;20117;-72
2022/03/16 06:06:44;;;;;;;87.50;48.17;;;9.00;93.10;;;;;;4972061;28;20067;-71
2022/03/16 06:09:10;;;;;;;85.13;56.05;;;9.10;94.60;;;;;;4971896;28;20039;-76
2022/03/16 06:11:39;;;;;;;89.38;53.58;;;9.20;95.00;;;;;;4970785;28;20035;-77
2022/03/16 06:14:06;;;;;;;75.68;46.03;;;9.20;94.50;;;;;;4980928;28;20030;-76
2022/03/16 06:16:32;;;;;;;71.65;42.50;;;9.20;95.90;;;;;;4981917;28;20376;-76
2022/03/16 06:18:59;;;;;;;72.28;39.25;;;9.10;97.50;;;;;;4970539;28;20457;-74
2022/03/16 06:21:25;;;;;;;80.65;36.00;;;9.00;98.50;;;;;;4972386;28;20073;-76
2022/03/16 06:23:50;;;;;;;80.07;40.35;;;9.00;99.80;;;;;;4971756;28;20039;-74
2022/03/16 06:26:16;;;;;;;74.57;39.40;;;9.00;99.80;;;;;;4970055;28;20027;-73
2022/03/16 06:28:42;;;;;;;72.07;39.20;;;9.10;98.40;;;;;;4971799;28;20034;-75
2022/03/16 06:31:09;;;;;;;62.80;40.38;;;9.20;97.90;;;;;;4971347;28;20050;-73
2022/03/16 06:33:35;;;;;;;67.28;38.05;;;9.30;97.10;;;;;;4970140;28;20027;-72
2022/03/16 06:36:02;;;;;;;63.95;35.38;;;9.30;96.40;;;;;;4982516;28;20053;-74
2022/03/16 06:38:29;;;;;;;73.38;37.10;;;9.40;95.90;;;;;;4983573;28;20385;-74
2022/03/16 06:40:56;;;;;;;61.78;35.05;;;9.40;96.10;;;;;;4981451;28;20116;-73
2022/03/16 06:43:22;;;;;;;65.70;37.83;;;9.50;95.60;;;;;;4974909;28;20038;-75
2022/03/16 06:45:49;;;;;;;72.13;38.10;;;9.50;96.00;;;;;;4986277;28;20027;-74
2022/03/16 06:48:21;;;;;;;73.03;36.97;;;9.60;95.30;;;;;;4978750;28;20059;-75
2022/03/16 06:50:47;;;;;;;76.18;40.05;;;9.60;94.60;;;;;;4974015;28;20027;-73
2022/03/16 06:53:13;;;;;;;67.15;37.80;;;9.70;94.20;;;;;;4983213;28;20049;-73
2022/03/16 06:55:40;;;;;;;69.85;39.40;;;9.80;94.60;;;;;;4968997;28;20031;-75
2022/03/16 06:58:07;;;;;;;73.32;40.72;;;9.90;95.00;;;;;;4969380;28;20027;-73
2022/03/16 07:00:33;;;;;;;74.88;43.28;;;10.00;94.50;;;;;;4980395;28;20034;-74
2022/03/16 07:03:02;;;;;;;70.38;43.53;;;10.10;94.50;;;;;;4973067;28;20031;-74
2022/03/16 07:05:32;;;;;;;70.43;45.95;;;10.10;94.70;;;;;;4973484;28;20380;-72
2022/03/16 07:07:59;;;;;;;78.10;50.80;;;10.30;94.70;;;;;;4975134;28;20031;-76
2022/03/16 07:10:27;;;;;;;87.72;52.60;;;10.40;93.60;;;;;;4974426;28;20059;-74
2022/03/16 07:12:53;;;;;;;80.38;47.63;;;10.50;93.40;;;;;;4975031;28;20559;-74
2022/03/16 07:15:23;;;;;;;90.22;45.97;;;10.50;94.00;;;;;;4985982;28;20010;-74
2022/03/16 07:17:50;;;;;;;74.13;43.55;;;10.60;93.30;;;;;;4987433;28;20034;-74
2022/03/16 07:20:18;;;;;;;72.47;44.17;;;10.70;92.90;;;;;;4976838;28;20027;-74
2022/03/16 07:22:44;;;;;;;100.30;53.10;;;10.80;93.60;;;;;;4972879;28;20130;-75
2022/03/16 07:25:11;;;;;;;95.20;54.33;;;11.00;92.70;;;;;;4987696;28;20034;-77
2022/03/16 07:27:39;;;;;;;84.32;50.83;;;10.90;92.40;;;;;;4962847;28;20031;-77
2022/03/16 07:30:06;;;;;;;83.47;53.85;;;11.00;91.90;;;;;;4974385;28;20509;-74
2022/03/16 07:32:35;;;;;;;81.88;52.08;;;11.20;92.20;;;;;;4973702;28;20049;-73
2022/03/16 07:35:01;;;;;;;77.78;48.00;;;11.30;93.20;;;;;;4974436;28;20373;-74
2022/03/16 07:37:27;;;;;;;70.13;42.10;;;11.40;92.20;;;;;;4973811;28;20027;-77
2022/03/16 07:39:53;;;;;;;71.65;43.17;;;11.50;91.50;;;;;;4973507;28;20164;-74
2022/03/16 07:42:19;;;;;;;83.18;46.40;;;11.60;91.00;;;;;;4982333;28;20058;-75
2022/03/16 07:44:49;;;;;;;76.63;46.92;;;11.70;92.30;;;;;;4976376;28;20015;-77
2022/03/16 07:47:15;;;;;;;49.30;30.83;;;11.80;92.10;;;;;;4974183;28;20027;-73
2022/03/16 07:49:41;;;;;;;52.78;31.20;;;11.90;91.30;;;;;;4981447;28;20535;-76
2022/03/16 07:52:07;;;;;;;38.90;21.48;;;11.90;91.90;;;;;;4974351;28;20107;-77
2022/03/16 07:54:34;;;;;;;40.63;22.30;;;12.00;91.90;;;;;;4980545;28;20780;-77
2022/03/16 07:57:03;;;;;;;36.10;21.83;;;12.00;91.50;;;;;;4960434;28;20038;-76
2022/03/16 07:59:28;;;;;;;38.45;22.90;;;12.10;91.20;;;;;;4973258;28;20019;-76
2022/03/16 08:01:54;;;;;;;38.92;22.95;;;12.10;91.70;;;;;;4973730;28;20485;-76
2022/03/16 08:04:21;;;;;;;38.92;24.50;;;12.20;91.60;;;;;;4973390;28;20086;-73
2022/03/16 08:06:46;;;;;;;43.78;24.88;;;12.30;91.90;;;;;;4971882;28;20031;-73
2022/03/16 08:09:13;;;;;;;41.38;21.98;;;12.30;92.40;;;;;;4981275;28;20042;-77
2022/03/16 08:11:39;;;;;;;34.50;20.02;;;12.40;91.80;;;;;;4983488;28;20078;-76
2022/03/16 08:14:05;;;;;;;39.03;21.20;;;12.50;90.80;;;;;;4992741;28;20045;-77
2022/03/16 08:16:31;;;;;;;42.35;21.05;;;12.60;90.80;;;;;;4992557;28;20372;-73
2022/03/16 08:18:57;;;;;;;32.85;19.05;;;12.70;90.50;;;;;;4992772;28;20022;-72
2022/03/16 08:21:23;;;;;;;39.53;18.48;;;12.80;87.20;;;;;;4988165;28;20077;-68
2022/03/16 08:23:49;;;;;;;29.58;15.38;;;12.90;85.90;;;;;;4973472;28;20027;-76
2022/03/16 08:26:16;;;;;;;34.60;17.30;;;13.00;84.30;;;;;;4977520;28;20027;-74
2022/03/16 08:28:42;;;;;;;42.28;15.90;;;13.10;84.40;;;;;;4971855;28;20043;-73
2022/03/16 08:31:08;;;;;;;39.55;18.67;;;13.20;82.90;;;;;;4973388;28;20051;-76
2022/03/16 08:33:34;;;;;;;31.80;19.00;;;13.20;82.30;;;;;;4955940;28;20034;-76
2022/03/16 08:36:01;;;;;;;44.53;17.65;;;13.20;81.90;;;;;;4984727;28;20038;-76
2022/03/16 08:38:30;;;;;;;37.90;18.27;;;13.20;80.40;;;;;;4974249;28;20085;-71
2022/03/16 08:40:56;;;;;;;35.75;19.00;;;13.20;79.60;;;;;;4986157;28;20089;-77
2022/03/16 08:43:22;;;;;;;30.00;17.92;;;13.30;78.60;;;;;;4972700;28;20062;-77
2022/03/16 08:45:48;;;;;;;32.95;15.82;;;13.30;79.10;;;;;;4980601;28;20019;-75
2022/03/16 08:48:15;;;;;;;29.15;15.45;;;13.40;79.10;;;;;;4972997;28;20030;-75
2022/03/16 08:50:41;;;;;;;25.80;14.40;;;13.40;79.50;;;;;;4973047;28;20027;-75
2022/03/16 08:53:07;;;;;;;24.85;14.23;;;13.40;78.70;;;;;;4972937;28;20027;-75
2022/03/16 08:55:33;;;;;;;29.15;19.33;;;13.50;77.40;;;;;;4972000;28;20130;-72
2022/03/16 08:57:59;;;;;;;23.88;12.63;;;13.70;78.00;;;;;;4985153;28;20035;-76
2022/03/16 09:00:25;;;;;;;23.45;12.05;;;13.80;76.10;;;;;;4971552;28;20098;-72
2022/03/16 09:02:51;;;;;;;28.45;12.07;;;13.80;73.50;;;;;;4972611;28;20049;-76
2022/03/16 09:05:17;;;;;;;27.67;12.25;;;13.90;74.00;;;;;;4972589;28;20035;-76
2022/03/16 09:07:43;;;;;;;21.38;12.00;;;13.80;72.80;;;;;;4972490;28;20496;-76
2022/03/16 09:10:10;;;;;;;24.35;11.65;;;13.90;75.00;;;;;;4972607;28;20035;-75
2022/03/16 09:12:37;;;;;;;27.95;10.15;;;13.90;74.20;;;;;;4972763;28;20754;-74
2022/03/16 09:15:04;;;;;;;27.67;10.70;;;13.80;70.40;;;;;;4972688;28;20035;-77
2022/03/16 09:17:30;;;;;;;21.10;7.95;;;13.80;70.70;;;;;;4971937;28;20027;-75
2022/03/16 09:19:57;;;;;;;23.15;7.97;;;13.80;68.90;;;;;;4972248;28;20114;-75
2022/03/16 09:22:32;;;;;;;16.75;7.60;;;13.80;67.20;;;;;;4984026;28;20058;-75
2022/03/16 09:24:59;;;;;;;15.02;6.60;;;13.70;69.00;;;;;;4970760;28;20030;-76
2022/03/16 09:27:26;;;;;;;21.65;7.50;;;13.70;67.40;;;;;;4971735;28;20393;-75
2022/03/16 09:29:53;;;;;;;17.15;8.48;;;13.60;67.40;;;;;;4972315;28;20109;-74
2022/03/16 09:32:21;;;;;;;15.50;7.85;;;13.70;68.20;;;;;;4972327;28;20042;-76
2022/03/16 09:34:48;;;;;;;16.02;8.25;;;13.70;68.30;;;;;;4972433;28;20027;-77
2022/03/16 09:37:15;;;;;;;13.75;7.05;;;13.70;69.40;;;;;;4972185;28;20089;-76
2022/03/16 09:39:42;;;;;;;17.98;8.15;;;13.80;69.30;;;;;;4972349;28;20035;-76
2022/03/16 09:42:09;;;;;;;16.13;7.78;;;13.80;69.80;;;;;;4970590;28;20047;-76
2022/03/16 09:44:36;;;;;;;16.23;8.55;;;13.80;68.60;;;;;;4972074;28;20329;-75
2022/03/16 09:47:04;;;;;;;12.70;7.47;;;13.80;70.20;;;;;;4976710;28;20105;-75
2022/03/16 09:49:30;;;;;;;15.52;7.38;;;13.80;69.80;;;;;;4972252;28;20019;-75
2022/03/16 09:51:58;;;;;;;18.92;8.77;;;13.70;69.40;;;;;;4972215;28;20106;-73
2022/03/16 09:54:25;;;;;;;23.88;7.78;;;13.70;70.70;;;;;;4972021;28;20081;-76
2022/03/16 09:56:53;;;;;;;21.08;7.22;;;13.60;71.10;;;;;;4972494;28;20453;-76
2022/03/16 09:59:21;;;;;;;11.98;6.32;;;13.60;71.80;;;;;;4971745;28;20035;-77
2022/03/16 10:01:47;;;;;;;13.35;7.10;;;13.60;70.90;;;;;;4954464;28;20061;-77
2022/03/16 10:04:30;;;;;;;16.20;6.63;;;13.60;71.60;;;;;;4971970;28;20114;-73
2022/03/16 10:06:59;;;;;;;16.48;7.78;;;13.50;71.70;;;;;;4955977;28;20082;-74
2022/03/16 10:15:23;;;;;;;13.57;7.07;;;13.50;75.80;;;;;;4975407;28;20070;-74
2022/03/16 10:17:59;;;;;;;12.60;7.13;;;13.40;75.80;;;;;;4957981;28;20408;-74
2022/03/16 10:20:40;;;;;;;17.25;7.57;;;13.40;76.50;;;;;;4979799;28;20066;-75
2022/03/16 10:23:10;;;;;;;13.60;7.65;;;13.40;77.30;;;;;;4959030;28;20039;-74
2022/03/16 10:25:37;;;;;;;19.27;8.20;;;13.40;77.40;;;;;;4974834;28;20027;-75
2022/03/16 10:28:10;;;;;;;16.50;8.52;;;13.50;78.40;;;;;;4975725;28;20544;-75
2022/03/16 10:30:48;;;;;;;15.95;8.40;;;13.50;79.10;;;;;;4975122;28;20061;-74
2022/03/16 10:33:16;;;;;;;17.98;7.00;;;13.50;80.20;;;;;;4975359;28;20534;-74
2022/03/16 10:36:08;;;;;;;16.67;7.68;;;13.50;79.60;;;;;;4974929;28;20069;-75
2022/03/16 10:38:43;;;;;;;24.00;9.25;;;13.50;80.60;;;;;;4974863;28;20473;-74
2022/03/16 10:41:14;;;;;;;16.52;8.25;;;13.50;81.30;;;;;;4975169;28;20469;-69
2022/03/16 10:46:34;;;;;;;17.20;7.75;;;13.70;81.70;;;;;;4957412;28;20035;-75
2022/03/16 10:49:03;;;;;;;14.18;6.85;;;13.70;82.80;;;;;;4976898;28;20113;-75
2022/03/16 10:51:30;;;;;;;14.45;6.85;;;13.70;82.10;;;;;;4975421;28;20030;-72
2022/03/16 10:53:58;;;;;;;15.45;7.65;;;13.80;82.70;;;;;;4974537;28;20038;-73
2022/03/16 10:56:26;;;;;;;15.40;8.35;;;13.80;83.60;;;;;;4975392;28;20027;-76
2022/03/16 10:58:53;;;;;;;12.63;7.18;;;13.80;82.60;;;;;;4974986;28;20039;-73
2022/03/16 11:01:22;;;;;;;12.43;6.47;;;13.70;83.40;;;;;;4974908;28;20038;-73
2022/03/16 11:03:50;;;;;;;16.27;6.13;;;13.80;83.70;;;;;;4973713;28;20038;-73
2022/03/16 11:06:23;;;;;;;13.02;6.25;;;13.80;83.40;;;;;;4983514;28;20057;-75
2022/03/16 11:08:51;;;;;;;12.82;6.78;;;13.70;81.30;;;;;;4983543;28;20055;-75
2022/03/16 11:14:08;;;;;;;16.98;7.68;;;13.60;83.90;;;;;;4997155;28;20027;-76
2022/03/16 11:16:35;;;;;;;15.60;7.60;;;13.70;83.40;;;;;;4978135;28;20034;-73
2022/03/16 11:19:04;;;;;;;12.65;6.07;;;13.70;83.70;;;;;;4974459;28;20042;-71
2022/03/16 11:21:45;;;;;;;17.02;8.65;;;13.60;84.30;;;;;;4974142;28;20034;-73
2022/03/16 11:24:17;;;;;;;12.07;6.32;;;13.60;87.40;;;;;;4973319;28;20038;-73
2022/03/16 11:26:56;;;;;;;13.05;6.97;;;13.50;87.20;;;;;;4973735;28;20038;-74
2022/03/16 11:29:40;;;;;;;14.57;7.55;;;13.50;86.30;;;;;;4974073;28;20047;-74
2022/03/16 11:32:19;;;;;;;15.60;6.90;;;13.40;90.20;;;;;;4974120;28;20034;-75
2022/03/16 11:34:59;;;;;;;14.95;8.25;;;13.40;88.60;;;;;;4974278;28;20449;-74
2022/03/16 11:37:52;;;;;;;15.40;7.28;;;13.40;91.50;;;;;;4973033;28;20085;-74
2022/03/16 11:40:29;;;;;;;9.90;5.90;;;13.30;90.10;;;;;;4969919;28;20619;-75
2022/03/16 11:43:11;;;;;;;11.50;6.85;;;13.20;91.50;;;;;;4974082;28;20043;-74
2022/03/16 11:46:00;;;;;;;13.82;6.72;;;13.10;92.50;;;;;;4974088;28;20034;-74
2022/03/16 11:48:33;;;;;;;10.60;5.53;;;13.10;93.00;;;;;;4973928;28;20039;-73
2022/03/16 11:51:16;;;;;;;13.27;7.10;;;13.10;92.60;;;;;;4973710;28;20026;-73
2022/03/16 11:53:50;;;;;;;20.30;10.07;;;13.10;93.90;;;;;;4970210;28;20035;-73
2022/03/16 11:56:23;;;;;;;22.80;11.55;;;12.90;95.70;;;;;;4970818;28;20034;-73
2022/03/16 11:58:59;;;;;;;22.45;11.40;;;13.00;96.30;;;;;;4972805;28;20081;-74
2022/03/16 12:01:34;;;;;;;17.10;8.13;;;13.00;97.10;;;;;;4973760;28;20027;-73
2022/03/16 12:04:11;;;;;;;15.57;9.07;;;13.10;96.20;;;;;;4973891;28;20078;-73
2022/03/16 12:06:52;;;;;;;20.27;9.25;;;13.10;95.90;;;;;;4956158;28;20382;-73
2022/03/16 12:09:29;;;;;;;13.60;6.70;;;13.20;98.50;;;;;;4979372;28;20381;-73
2022/03/16 12:15:11;;;;;;;16.58;9.57;;;13.40;93.70;;;;;;4971509;28;20039;-71
2022/03/16 12:17:37;;;;;;;11.82;5.97;;;13.50;94.70;;;;;;4997320;28;20587;-73
2022/03/16 12:20:15;;;;;;;17.52;7.63;;;13.70;92.90;;;;;;4992610;28;20069;-76
2022/03/16 12:22:46;;;;;;;10.15;5.95;;;13.80;93.60;;;;;;4982805;28;20129;-73
2022/03/16 12:25:27;;;;;;;16.08;7.32;;;13.90;93.30;;;;;;4970916;28;20252;-73
2022/03/16 12:31:04;;;;;;;19.13;9.45;;;13.90;90.60;;;;;;4972534;28;20089;-73
2022/03/16 12:33:32;;;;;;;21.23;10.93;;;13.90;90.00;;;;;;4976718;28;20031;-75
2022/03/16 12:36:02;;;;;;;18.73;8.45;;;14.00;89.20;;;;;;4955385;28;20026;-73
2022/03/16 12:38:30;;;;;;;13.32;6.63;;;14.00;90.00;;;;;;4972776;28;20031;-74
2022/03/16 12:43:48;;;;;;;14.02;6.97;;;13.90;89.60;;;;;;4973628;28;20039;-73
2022/03/16 12:46:36;;;;;;;18.13;6.65;;;14.00;88.50;;;;;;4972678;28;20381;-74
2022/03/16 12:49:07;;;;;;;14.60;7.10;;;13.90;89.10;;;;;;4955688;28;20065;-69
2022/03/16 12:51:46;;;;;;;14.07;7.28;;;13.90;90.10;;;;;;4980707;28;20033;-74
2022/03/16 12:54:20;;;;;;;22.33;11.77;;;13.80;86.40;;;;;;4976690;28;20055;-74
2022/03/16 12:56:52;;;;;;;25.45;13.88;;;13.80;86.90;;;;;;4972476;28;20043;-73
2022/03/16 12:59:27;;;;;;;19.88;8.55;;;13.80;86.80;;;;;;4972784;28;20381;-74
2022/03/16 13:01:55;;;;;;;14.18;6.78;;;13.70;85.90;;;;;;4972573;28;20066;-73